Time;durP1;ratioP1;P1;durP2;ratioP2;P2;SDS_P1;SDS_P2;PMS_P1;PMS_P2;Temp;Humidity;BMP_temperature;BMP_pressure;BME280_temperature;BME280_humidity;BME280_pressure;Samples;Min_cycle;Max_cycle;Signal;HPM_P1;HPM_P2
2022/04/25 03:02:05;;;;;;;48.17;37.30;;;9.40;99.90;;;;;;5155533;23;20252;-77
2022/04/25 03:04:31;;;;;;;48.60;39.27;;;9.40;99.90;;;;;;4955407;29;20178;-76
2022/04/25 03:06:57;;;;;;;49.57;37.33;;;9.40;99.90;;;;;;4955660;29;20209;-76
2022/04/25 03:09:23;;;;;;;47.73;39.10;;;9.40;99.90;;;;;;4956514;28;20737;-76
2022/04/25 03:11:50;;;;;;;50.13;39.23;;;9.40;99.90;;;;;;4957909;28;20681;-76
2022/04/25 03:14:16;;;;;;;46.47;37.37;;;9.40;99.90;;;;;;4969597;23;20304;-78
2022/04/25 03:16:42;;;;;;;48.10;38.53;;;9.40;99.90;;;;;;4935946;29;20273;-77
2022/04/25 03:19:09;;;;;;;45.67;37.23;;;9.40;99.90;;;;;;4936487;29;20310;-79
2022/04/25 03:21:34;;;;;;;49.47;38.37;;;9.40;99.90;;;;;;4938705;29;20623;-80
2022/04/25 03:24:02;;;;;;;45.27;37.00;;;9.40;99.90;;;;;;4947707;29;20229;-79
2022/04/25 03:26:29;;;;;;;44.10;35.87;;;9.40;99.90;;;;;;4939509;29;20187;-79
2022/04/25 03:28:54;;;;;;;46.67;38.20;;;9.40;99.90;;;;;;4922842;29;20187;-80
2022/04/25 03:31:20;;;;;;;45.90;37.00;;;9.40;99.90;;;;;;4918889;29;20240;-79
2022/04/25 03:33:46;;;;;;;47.83;36.83;;;9.40;99.90;;;;;;4916969;29;20213;-79
2022/04/25 03:36:12;;;;;;;47.67;38.83;;;9.40;99.90;;;;;;4917526;29;20294;-79
2022/04/25 03:38:39;;;;;;;47.10;36.80;;;9.40;99.90;;;;;;4920848;29;20258;-78
2022/04/25 03:41:04;;;;;;;45.67;38.13;;;9.40;99.90;;;;;;4917298;29;20195;-77
2022/04/25 03:43:32;;;;;;;45.37;35.83;;;9.40;99.90;;;;;;4916089;29;20227;-78
2022/04/25 03:45:57;;;;;;;44.40;36.50;;;9.30;99.90;;;;;;4916207;29;20183;-77
2022/04/25 03:48:23;;;;;;;46.73;36.23;;;9.40;99.90;;;;;;4912306;29;20188;-77
2022/04/25 03:50:49;;;;;;;46.63;41.57;;;9.40;99.90;;;;;;4915983;29;20647;-77
2022/04/25 03:53:15;;;;;;;45.83;36.07;;;9.40;99.90;;;;;;4916012;29;20202;-77
2022/04/25 03:58:25;;;;;;;44.57;36.30;;;9.40;99.90;;;;;;4917274;29;20262;-76
2022/04/25 04:00:51;;;;;;;46.63;36.13;;;9.40;99.90;;;;;;4915465;29;20195;-76
2022/04/25 04:03:18;;;;;;;46.63;37.80;;;9.40;99.90;;;;;;4916395;29;20198;-76
2022/04/25 04:05:45;;;;;;;43.00;34.90;;;9.40;99.90;;;;;;4914614;29;20226;-77
2022/04/25 04:08:11;;;;;;;49.57;37.10;;;9.40;99.90;;;;;;4919046;29;20183;-76
2022/04/25 04:10:37;;;;;;;44.57;35.97;;;9.40;99.90;;;;;;4928869;29;20193;-77
2022/04/25 04:13:05;;;;;;;46.50;39.27;;;9.40;99.90;;;;;;4934416;29;20554;-76
2022/04/25 04:15:31;;;;;;;45.57;38.77;;;9.40;99.90;;;;;;4934106;29;20211;-78
2022/04/25 04:17:57;;;;;;;46.83;38.03;;;9.50;99.90;;;;;;4933655;29;20183;-78
2022/04/25 04:20:23;;;;;;;44.30;36.63;;;9.50;99.90;;;;;;4936251;29;20185;-78
2022/04/25 04:22:49;;;;;;;43.43;33.77;;;9.50;99.90;;;;;;4927936;29;20218;-77
2022/04/25 04:25:15;;;;;;;44.60;34.00;;;9.40;99.90;;;;;;4919122;29;20227;-78
2022/04/25 04:27:42;;;;;;;40.87;33.03;;;9.40;99.90;;;;;;4918624;29;20187;-76
2022/04/25 04:30:13;;;;;;;41.20;32.80;;;9.30;99.90;;;;;;4919204;29;20320;-78
2022/04/25 04:32:40;;;;;;;40.13;32.03;;;9.30;99.90;;;;;;4918131;29;20191;-79
2022/04/25 04:35:12;;;;;;;45.10;36.27;;;9.30;99.90;;;;;;4917659;29;20207;-78
2022/04/25 04:37:39;;;;;;;46.13;37.20;;;9.40;99.90;;;;;;4930033;29;20190;-76
2022/04/25 04:42:52;;;;;;;50.23;40.30;;;9.40;99.90;;;;;;4935952;29;20300;-77
2022/04/25 04:45:18;;;;;;;45.33;38.23;;;9.40;99.90;;;;;;4934762;29;20289;-77
2022/04/25 04:47:43;;;;;;;43.20;36.50;;;9.50;99.90;;;;;;4934832;29;20610;-78
2022/04/25 04:50:14;;;;;;;42.93;36.17;;;9.50;99.90;;;;;;4932432;29;20178;-78
2022/04/25 04:53:01;;;;;;;46.40;38.17;;;9.60;99.90;;;;;;4931961;29;20192;-77
2022/04/25 04:55:27;;;;;;;44.60;36.17;;;9.60;99.90;;;;;;4934578;29;20222;-74
2022/04/25 04:57:55;;;;;;;43.97;36.47;;;9.60;99.90;;;;;;4935518;29;20197;-73
2022/04/25 05:00:23;;;;;;;47.17;37.27;;;9.60;99.90;;;;;;4936740;29;20182;-74
2022/04/25 05:02:49;;;;;;;44.37;37.67;;;9.60;99.90;;;;;;4935151;29;20555;-73
2022/04/25 05:05:15;;;;;;;50.00;37.93;;;9.60;99.90;;;;;;4926119;29;20290;-73
2022/04/25 05:07:41;;;;;;;48.73;37.07;;;9.60;99.90;;;;;;4916983;29;20221;-74
2022/04/25 05:10:08;;;;;;;47.50;37.30;;;9.70;99.90;;;;;;4915872;29;20210;-74
2022/04/25 05:12:45;;;;;;;45.57;36.17;;;9.80;99.90;;;;;;4915629;29;20193;-74
2022/04/25 05:15:13;;;;;;;42.03;34.97;;;9.90;99.90;;;;;;4915303;29;20255;-74
2022/04/25 05:17:41;;;;;;;42.67;34.50;;;9.90;99.90;;;;;;4913765;29;20238;-74
2022/04/25 05:20:08;;;;;;;41.30;32.33;;;10.10;99.90;;;;;;4930294;29;20246;-74
2022/04/25 05:22:37;;;;;;;46.30;35.40;;;10.20;99.90;;;;;;4926660;29;20218;-74
2022/04/25 05:25:03;;;;;;;53.13;48.00;;;10.30;99.90;;;;;;4914950;29;20214;-74
2022/04/25 05:27:29;;;;;;;51.27;45.90;;;10.40;99.90;;;;;;4913728;29;20187;-74
2022/04/25 05:29:54;;;;;;;49.83;44.87;;;10.40;99.90;;;;;;4915202;29;20273;-74
2022/04/25 05:32:20;;;;;;;48.83;43.80;;;10.50;99.90;;;;;;4916728;29;20683;-75
2022/04/25 05:34:46;;;;;;;44.50;40.07;;;10.50;99.90;;;;;;4934093;29;20213;-76
2022/04/25 05:37:12;;;;;;;41.00;33.50;;;10.60;99.90;;;;;;4932834;29;20679;-74
2022/04/25 05:39:37;;;;;;;37.07;31.43;;;10.50;99.90;;;;;;4932568;29;20182;-75
2022/04/25 05:42:03;;;;;;;35.53;29.97;;;10.50;99.90;;;;;;4934069;29;20293;-75
2022/04/25 05:44:29;;;;;;;36.47;31.50;;;10.40;99.90;;;;;;4933978;29;20206;-75
2022/04/25 05:46:56;;;;;;;41.80;33.07;;;10.40;99.90;;;;;;4927170;29;20182;-74
2022/04/25 05:52:08;;;;;;;36.17;30.27;;;10.30;99.90;;;;;;4915650;29;20562;-74
2022/04/25 05:54:34;;;;;;;35.90;30.80;;;10.30;99.90;;;;;;4914228;29;20199;-75
2022/04/25 05:57:00;;;;;;;37.67;30.77;;;10.40;99.90;;;;;;4916948;29;20648;-74
2022/04/25 05:59:29;;;;;;;39.57;35.40;;;10.60;99.90;;;;;;4916423;29;20226;-75
2022/04/25 06:01:56;;;;;;;49.77;45.07;;;10.70;99.90;;;;;;4927099;29;20214;-75
2022/04/25 06:04:22;;;;;;;52.13;47.43;;;11.30;99.90;;;;;;4932728;29;20210;-75
2022/04/25 06:06:48;;;;;;;46.93;42.83;;;11.80;99.90;;;;;;4933285;29;20188;-75
2022/04/25 06:09:15;;;;;;;35.27;31.73;;;12.10;99.90;;;;;;4937428;29;20651;-74
2022/04/25 06:11:42;;;;;;;38.07;34.53;;;12.30;99.90;;;;;;4936479;29;20197;-75
2022/04/25 06:14:08;;;;;;;48.23;44.23;;;12.30;99.90;;;;;;4936064;29;20300;-75
2022/04/25 06:16:34;;;;;;;38.97;35.40;;;12.30;99.90;;;;;;4918596;29;20186;-76
2022/04/25 06:19:01;;;;;;;37.77;34.10;;;12.50;99.90;;;;;;4907048;29;20247;-76
2022/04/25 06:21:27;;;;;;;30.47;27.47;;;12.70;99.90;;;;;;4926594;29;20206;-76
2022/04/25 06:23:53;;;;;;;30.33;27.00;;;12.80;99.90;;;;;;4918134;29;20206;-75
2022/04/25 06:26:18;;;;;;;29.90;26.83;;;12.70;99.90;;;;;;4917311;29;20197;-76
2022/04/25 06:28:44;;;;;;;36.67;33.17;;;12.80;99.90;;;;;;4916820;29;20308;-75
2022/04/25 06:31:10;;;;;;;37.17;33.57;;;12.60;99.90;;;;;;4918005;29;20203;-75
2022/04/25 06:33:36;;;;;;;35.03;31.63;;;12.50;99.90;;;;;;4927946;29;20182;-76
2022/04/25 06:36:02;;;;;;;37.13;33.53;;;12.70;99.90;;;;;;4918240;29;20349;-77
2022/04/25 06:38:28;;;;;;;28.20;25.37;;;13.20;99.90;;;;;;4917676;29;20671;-76
2022/04/25 06:40:54;;;;;;;32.63;29.70;;;13.40;99.90;;;;;;4916938;29;20183;-76
2022/04/25 06:43:20;;;;;;;40.40;36.53;;;13.30;99.90;;;;;;4918168;29;20758;-76
2022/04/25 06:45:46;;;;;;;35.20;32.13;;;13.10;99.90;;;;;;4917497;29;20180;-76
2022/04/25 06:48:12;;;;;;;41.47;37.87;;;13.10;99.90;;;;;;4915138;29;20218;-78
2022/04/25 06:50:38;;;;;;;40.60;37.07;;;13.20;99.90;;;;;;4915779;29;20258;-75
2022/04/25 06:53:04;;;;;;;43.33;39.97;;;13.70;99.90;;;;;;4916905;29;20267;-75
2022/04/25 06:55:30;;;;;;;27.97;25.27;;;14.70;99.90;;;;;;4918122;29;20209;-75
2022/04/25 06:57:56;;;;;;;24.43;22.00;;;15.10;99.90;;;;;;4911717;29;20187;-75
2022/04/25 07:00:24;;;;;;;24.03;21.53;;;15.00;99.90;;;;;;4904712;29;20195;-76
2022/04/25 07:02:51;;;;;;;25.33;22.83;;;14.70;99.90;;;;;;4917695;29;20298;-75
2022/04/25 07:05:17;;;;;;;27.73;25.23;;;14.50;99.90;;;;;;4917462;29;20636;-75
2022/04/25 07:07:43;;;;;;;24.43;21.97;;;14.40;99.90;;;;;;4917210;29;20205;-75
2022/04/25 07:10:09;;;;;;;25.93;23.23;;;14.70;99.90;;;;;;4916632;29;20183;-77
2022/04/25 07:12:35;;;;;;;29.37;26.80;;;15.10;99.90;;;;;;4917141;29;20183;-75
2022/04/25 07:15:01;;;;;;;30.03;27.30;;;15.00;99.90;;;;;;4916948;29;20222;-75
2022/04/25 07:17:27;;;;;;;30.37;27.37;;;14.80;99.90;;;;;;4916516;29;20190;-75
2022/04/25 07:19:53;;;;;;;26.27;23.73;;;14.80;99.90;;;;;;4916395;29;20286;-75
2022/04/25 07:30:34;;;;;;;27.33;24.93;;;16.10;99.90;;;;;;4917572;29;20214;-75
2022/04/25 07:33:00;;;;;;;26.20;23.90;;;16.10;99.90;;;;;;4917914;29;20616;-74
2022/04/25 07:35:27;;;;;;;30.73;28.23;;;15.90;99.90;;;;;;4912266;29;20219;-76
2022/04/25 07:37:55;;;;;;;28.50;26.10;;;15.50;99.90;;;;;;4912210;29;20193;-75
2022/04/25 07:40:22;;;;;;;25.63;23.57;;;14.80;99.90;;;;;;4912811;29;20711;-76
2022/04/25 07:42:48;;;;;;;23.00;21.10;;;14.10;99.90;;;;;;4914875;29;20203;-75
2022/04/25 07:45:14;;;;;;;20.43;18.43;;;13.80;99.90;;;;;;4915257;29;20209;-76
2022/04/25 07:47:43;;;;;;;20.90;18.87;;;13.70;99.90;;;;;;4916648;29;20179;-75
2022/04/25 07:50:13;;;;;;;21.03;19.03;;;13.70;99.90;;;;;;4915813;29;20187;-75
2022/04/25 07:52:39;;;;;;;22.50;20.20;;;13.70;99.90;;;;;;4915077;29;20292;-74
2022/04/25 07:55:07;;;;;;;19.63;17.73;;;14.00;99.90;;;;;;4918210;29;20206;-75
2022/04/25 07:57:34;;;;;;;20.80;18.70;;;14.10;99.90;;;;;;4918155;29;20187;-74
2022/04/25 08:00:00;;;;;;;18.97;17.17;;;14.20;99.90;;;;;;4916376;29;20187;-74
2022/04/25 08:02:26;;;;;;;21.43;19.50;;;14.40;99.90;;;;;;4917580;29;20897;-74
2022/04/25 08:04:52;;;;;;;21.87;19.87;;;14.70;99.90;;;;;;4914922;29;20214;-75
2022/04/25 08:07:17;;;;;;;26.70;24.67;;;15.40;99.90;;;;;;4909929;29;20194;-74
2022/04/25 08:09:44;;;;;;;21.40;19.40;;;16.10;99.90;;;;;;4916207;29;20210;-75
2022/04/25 08:17:59;;;;;;;18.57;16.97;;;18.00;99.90;;;;;;4914335;29;20539;-76
2022/04/25 08:20:28;;;;;;;19.13;17.43;;;18.00;99.90;;;;;;4913843;29;20187;-74
2022/04/25 08:22:55;;;;;;;17.70;16.10;;;17.40;99.90;;;;;;4914395;29;20590;-74
2022/04/25 08:25:20;;;;;;;17.30;15.70;;;17.40;99.90;;;;;;4916037;29;20211;-74
2022/04/25 08:27:46;;;;;;;19.07;17.57;;;17.90;99.90;;;;;;4915860;29;20179;-69
2022/04/25 08:30:12;;;;;;;18.97;17.47;;;18.70;99.90;;;;;;4915629;29;20237;-68
2022/04/25 08:32:38;;;;;;;13.00;11.90;;;19.50;99.90;;;;;;4914950;29;20185;-70
2022/04/25 08:35:05;;;;;;;12.27;11.23;;;19.50;99.90;;;;;;4914529;29;20263;-68
2022/04/25 08:37:31;;;;;;;13.40;12.13;;;18.90;99.90;;;;;;4908194;29;20621;-69
2022/04/25 08:39:56;;;;;;;14.17;12.97;;;18.20;99.90;;;;;;4911722;29;20210;-69
2022/04/25 08:42:22;;;;;;;14.27;13.07;;;18.00;99.90;;;;;;4897082;29;20715;-70
2022/04/25 08:44:54;;;;;;;12.10;10.90;;;18.20;99.90;;;;;;4914390;29;20206;-68
2022/04/25 08:47:24;;;;;;;11.83;10.83;;;18.20;99.90;;;;;;4914454;29;20275;-67
2022/04/25 08:49:50;;;;;;;13.37;12.37;;;18.10;99.90;;;;;;4918040;29;20235;-66
2022/04/25 08:52:17;;;;;;;11.20;10.30;;;18.20;99.90;;;;;;4915301;29;20229;-66
2022/04/25 08:54:44;;;;;;;11.27;10.37;;;18.70;99.90;;;;;;4914239;29;20811;-67
2022/04/25 08:57:10;;;;;;;10.20;9.30;;;18.80;99.90;;;;;;4912503;29;20187;-66
2022/04/25 08:59:37;;;;;;;9.97;9.27;;;18.90;99.90;;;;;;4900707;29;20194;-66
2022/04/25 09:02:03;;;;;;;10.60;9.67;;;18.60;99.90;;;;;;4899812;29;20277;-67
2022/04/25 09:04:29;;;;;;;10.87;10.07;;;18.70;99.20;;;;;;4915575;29;20194;-68
2022/04/25 09:06:55;;;;;;;11.90;11.00;;;18.60;99.10;;;;;;4915573;29;20189;-67
2022/04/25 09:09:21;;;;;;;11.27;10.37;;;18.50;99.70;;;;;;4913359;29;20330;-68
2022/04/25 09:14:32;;;;;;;11.10;10.20;;;19.60;99.40;;;;;;4936672;23;20219;-72
2022/04/25 09:16:59;;;;;;;10.97;9.97;;;20.00;96.10;;;;;;4931628;29;20226;-72
2022/04/25 09:19:26;;;;;;;11.23;10.17;;;19.50;95.90;;;;;;4934146;29;20206;-73
2022/04/25 09:21:51;;;;;;;10.07;9.27;;;19.10;96.70;;;;;;4934509;29;20219;-74
2022/04/25 09:24:25;;;;;;;9.93;9.23;;;18.90;98.00;;;;;;4935017;29;20182;-73
2022/04/25 09:27:23;;;;;;;11.17;10.27;;;19.50;97.70;;;;;;4915032;29;20230;-74
2022/04/25 09:29:49;;;;;;;10.63;9.73;;;19.80;96.90;;;;;;4916312;29;20182;-81
2022/04/25 09:32:19;;;;;;;11.70;10.50;;;20.40;98.30;;;;;;4932558;29;20652;-78
2022/04/25 09:35:02;;;;;;;11.43;10.53;;;20.60;99.90;;;;;;4922050;29;20194;-78
2022/04/25 09:37:41;;;;;;;10.37;9.57;;;21.60;97.00;;;;;;4919713;29;20194;-77
2022/04/25 09:40:08;;;;;;;11.80;10.90;;;22.30;94.10;;;;;;4918152;29;20674;-75
2022/04/25 09:42:35;;;;;;;12.30;11.40;;;22.40;90.60;;;;;;4912061;29;20661;-74
2022/04/25 09:45:00;;;;;;;13.70;12.77;;;22.20;95.30;;;;;;4905113;29;20299;-75
2022/04/25 09:47:32;;;;;;;13.95;12.80;;;22.60;90.70;;;;;;4894677;29;20223;-75
2022/04/25 09:50:09;;;;;;;13.32;12.38;;;23.00;91.80;;;;;;4903567;29;20180;-75
2022/04/25 09:52:58;;;;;;;15.15;13.95;;;22.60;91.00;;;;;;4913668;29;20270;-75
2022/04/25 09:55:27;;;;;;;16.27;15.17;;;22.20;89.30;;;;;;4913383;29;20323;-75
2022/04/25 09:57:53;;;;;;;16.00;15.00;;;21.90;92.00;;;;;;4912572;29;20186;-75
2022/04/25 10:00:31;;;;;;;14.80;13.87;;;21.40;90.60;;;;;;4914507;29;20187;-75
2022/04/25 10:02:57;;;;;;;17.13;15.97;;;21.00;89.30;;;;;;4914377;29;20290;-75
2022/04/25 10:05:34;;;;;;;13.23;12.33;;;20.70;86.80;;;;;;4913086;29;20206;-75
2022/04/25 10:08:00;;;;;;;19.40;18.17;;;19.60;90.00;;;;;;4914073;29;20189;-75
2022/04/25 10:10:27;;;;;;;18.97;17.73;;;19.40;92.20;;;;;;4913340;29;20183;-76
2022/04/25 10:12:55;;;;;;;15.60;14.37;;;19.20;90.10;;;;;;4914176;29;20270;-76
2022/04/25 10:15:22;;;;;;;20.00;18.67;;;19.00;91.20;;;;;;4913950;29;20701;-76
2022/04/25 10:17:51;;;;;;;12.67;11.67;;;18.80;93.70;;;;;;4913681;29;20222;-76
2022/04/25 10:20:16;;;;;;;12.20;11.20;;;18.20;96.30;;;;;;4914250;29;20183;-75
2022/04/25 10:22:43;;;;;;;13.30;12.27;;;17.50;98.80;;;;;;4914352;29;20218;-76
2022/04/25 10:25:10;;;;;;;14.40;13.33;;;17.20;99.90;;;;;;4912964;29;20203;-76
2022/04/25 10:27:40;;;;;;;12.03;11.10;;;17.00;99.90;;;;;;4913657;29;20576;-76
2022/04/25 10:30:16;;;;;;;13.37;12.27;;;17.20;99.90;;;;;;4909125;29;20623;-76
2022/04/25 10:32:42;;;;;;;17.77;16.37;;;17.20;99.90;;;;;;4895509;29;20648;-76
2022/04/25 10:35:14;;;;;;;16.87;15.70;;;17.30;99.90;;;;;;4895000;29;20219;-75
2022/04/25 10:37:43;;;;;;;15.23;14.13;;;17.30;99.90;;;;;;4895514;29;20571;-76
2022/04/25 10:40:12;;;;;;;18.07;16.77;;;17.50;99.90;;;;;;4895162;29;20192;-75
2022/04/25 10:45:56;;;;;;;14.27;13.17;;;18.80;99.90;;;;;;4914262;29;20207;-75
2022/04/25 10:48:22;;;;;;;11.27;10.17;;;20.00;99.20;;;;;;4913905;29;20187;-76
2022/04/25 10:51:10;;;;;;;10.27;9.47;;;21.40;95.20;;;;;;4914386;29;20250;-76
2022/04/25 10:54:02;;;;;;;18.77;17.50;;;21.70;95.70;;;;;;4929167;29;20179;-75
2022/04/25 10:56:29;;;;;;;13.75;12.75;;;22.60;92.00;;;;;;4931274;29;20211;-74
2022/04/25 10:59:20;;;;;;;16.10;15.00;;;23.40;88.10;;;;;;4917798;29;20198;-77
2022/04/25 11:01:46;;;;;;;14.73;13.82;;;24.00;81.30;;;;;;4917790;29;20225;-75
2022/04/25 11:04:13;;;;;;;25.98;24.48;;;24.10;80.80;;;;;;4918083;29;20564;-75
2022/04/25 11:06:39;;;;;;;30.10;28.25;;;23.70;74.50;;;;;;4920558;29;20643;-75
2022/04/25 11:09:05;;;;;;;22.27;20.95;;;22.70;77.80;;;;;;4917915;29;20206;-76
2022/04/25 11:11:47;;;;;;;24.20;22.70;;;21.90;81.00;;;;;;4912740;29;20187;-74
2022/04/25 11:14:14;;;;;;;21.70;20.37;;;21.70;81.20;;;;;;4897484;29;20183;-74
2022/04/25 11:16:40;;;;;;;25.63;24.07;;;21.30;80.60;;;;;;4898373;29;20599;-75
2022/04/25 11:19:15;;;;;;;27.53;25.90;;;21.80;80.90;;;;;;4897819;29;20283;-75
2022/04/25 11:21:45;;;;;;;19.13;17.63;;;22.30;78.90;;;;;;4898562;29;20631;-74
2022/04/25 11:24:30;;;;;;;18.67;17.50;;;22.50;82.10;;;;;;4898366;29;20184;-75
2022/04/25 11:27:01;;;;;;;25.42;24.02;;;23.10;77.40;;;;;;4912368;29;20701;-74
2022/04/25 11:29:27;;;;;;;25.00;23.50;;;23.30;74.00;;;;;;4897207;29;20191;-76
2022/04/25 11:32:26;;;;;;;22.93;21.50;;;23.00;74.30;;;;;;4898463;29;20191;-75
2022/04/25 11:34:52;;;;;;;21.23;20.02;;;22.50;72.20;;;;;;4897924;29;20208;-75
2022/04/25 11:37:22;;;;;;;19.08;17.95;;;21.90;79.30;;;;;;4897953;29;20183;-75
2022/04/25 11:40:03;;;;;;;24.25;22.77;;;21.50;79.60;;;;;;4910212;29;20187;-75
2022/04/25 11:42:31;;;;;;;26.17;24.60;;;21.40;79.20;;;;;;4915289;29;20306;-75
2022/04/25 11:44:58;;;;;;;25.15;23.60;;;21.00;77.70;;;;;;4915618;29;20199;-75
2022/04/25 11:47:24;;;;;;;25.23;23.73;;;21.10;77.80;;;;;;4916057;29;20581;-75
2022/04/25 11:50:04;;;;;;;16.63;15.60;;;21.30;78.90;;;;;;4915377;29;20183;-75
2022/04/25 11:52:30;;;;;;;19.27;17.87;;;21.30;81.60;;;;;;4913927;29;20222;-75
2022/04/25 11:54:57;;;;;;;22.80;21.40;;;21.30;81.20;;;;;;4915485;29;20207;-75
2022/04/25 11:57:26;;;;;;;16.20;15.10;;;21.10;82.10;;;;;;4915408;29;20251;-75
2022/04/25 12:00:12;;;;;;;12.07;11.17;;;20.40;84.60;;;;;;4917097;29;20191;-75
2022/04/25 12:02:39;;;;;;;12.80;11.90;;;19.90;88.00;;;;;;4915420;29;20211;-74
2022/04/25 12:05:07;;;;;;;12.80;11.70;;;19.30;89.50;;;;;;4915931;29;20203;-75
2022/04/25 12:07:37;;;;;;;28.07;26.37;;;18.80;90.40;;;;;;4916123;29;20183;-74
2022/04/25 12:15:40;;;;;;;12.03;11.03;;;18.40;92.60;;;;;;4916459;29;20226;-75
2022/04/25 12:18:17;;;;;;;14.03;12.73;;;18.20;92.60;;;;;;4915015;29;20723;-75
2022/04/25 12:20:49;;;;;;;12.07;10.50;;;18.20;94.40;;;;;;4916346;29;20199;-75
2022/04/25 12:23:29;;;;;;;12.10;11.20;;;17.80;95.40;;;;;;4917641;29;20678;-73
2022/04/25 12:25:56;;;;;;;11.60;10.70;;;17.40;99.60;;;;;;4915611;29;20226;-72
2022/04/25 12:28:23;;;;;;;23.53;21.93;;;17.10;99.90;;;;;;4900827;29;20226;-73
2022/04/25 12:30:52;;;;;;;18.40;17.10;;;16.60;99.90;;;;;;4898260;29;20239;-72
2022/04/25 12:33:21;;;;;;;49.80;47.00;;;16.20;99.90;;;;;;4898929;29;20190;-73
2022/04/25 12:35:51;;;;;;;106.77;101.37;;;16.00;99.90;;;;;;4915748;29;20242;-73
2022/04/25 12:38:40;;;;;;;16.03;14.80;;;15.80;99.90;;;;;;4920702;29;20277;-74
2022/04/25 12:41:07;;;;;;;14.10;13.07;;;15.60;99.90;;;;;;4906998;29;20187;-73
2022/04/25 12:43:42;;;;;;;14.70;13.37;;;15.40;99.90;;;;;;4897806;29;20216;-77
2022/04/25 12:46:09;;;;;;;29.37;27.20;;;15.00;99.90;;;;;;4896937;29;20209;-76
2022/04/25 12:49:04;;;;;;;32.07;29.47;;;14.20;99.90;;;;;;4910558;29;20183;-76
2022/04/25 12:51:50;;;;;;;51.67;48.20;;;13.40;99.90;;;;;;4927498;29;20191;-77
2022/04/25 12:54:21;;;;;;;29.40;26.60;;;12.70;99.90;;;;;;4920073;29;20277;-76
2022/04/25 12:56:50;;;;;;;38.20;35.33;;;12.40;99.90;;;;;;4914157;29;20254;-76
2022/04/25 12:59:29;;;;;;;35.77;32.70;;;12.10;99.90;;;;;;4915572;29;20270;-76
2022/04/25 13:02:15;;;;;;;22.57;20.37;;;12.00;99.90;;;;;;4914246;29;20222;-77
2022/04/25 13:04:57;;;;;;;22.57;20.67;;;11.80;99.90;;;;;;4907596;29;20271;-75
2022/04/25 13:07:27;;;;;;;20.97;19.17;;;11.70;99.90;;;;;;4911519;29;20321;-76
2022/04/25 13:09:55;;;;;;;24.53;22.63;;;11.60;99.90;;;;;;4910751;29;20651;-77
2022/04/25 13:12:22;;;;;;;41.93;38.97;;;11.70;99.90;;;;;;4915404;29;20325;-77
2022/04/25 13:14:48;;;;;;;33.67;30.77;;;11.70;99.90;;;;;;4915307;29;20217;-76
2022/04/25 13:17:14;;;;;;;36.10;33.13;;;11.70;99.90;;;;;;4913086;29;20194;-77
2022/04/25 13:19:40;;;;;;;46.70;43.23;;;11.60;99.90;;;;;;4914544;29;20674;-76
2022/04/25 13:22:06;;;;;;;64.07;59.43;;;11.70;99.90;;;;;;4913175;29;20224;-76
2022/04/25 13:24:32;;;;;;;63.73;59.63;;;11.80;99.90;;;;;;4914601;29;20186;-76
2022/04/25 13:26:58;;;;;;;56.23;52.80;;;11.70;99.90;;;;;;4904191;29;20363;-77
2022/04/25 13:29:24;;;;;;;63.17;59.47;;;11.70;99.90;;;;;;4896952;29;20197;-76
2022/04/25 13:31:50;;;;;;;65.37;61.60;;;11.70;99.90;;;;;;4906566;29;20199;-77
2022/04/25 13:34:16;;;;;;;65.10;61.20;;;11.80;99.90;;;;;;4914839;29;20193;-76
2022/04/25 13:36:42;;;;;;;54.47;51.27;;;11.90;99.90;;;;;;4915313;29;20622;-77
2022/04/25 13:39:07;;;;;;;59.33;55.73;;;12.00;99.90;;;;;;4913398;29;20202;-77
2022/04/25 13:41:33;;;;;;;35.53;32.60;;;12.10;99.90;;;;;;4912678;29;20202;-77
2022/04/25 13:44:01;;;;;;;83.27;78.53;;;12.00;99.90;;;;;;4914594;29;20194;-77
2022/04/25 13:46:27;;;;;;;222.60;210.73;;;12.10;99.90;;;;;;4914077;29;20216;-77
2022/04/25 13:48:53;;;;;;;143.13;135.43;;;12.20;99.90;;;;;;4917127;29;20274;-77
2022/04/25 13:51:18;;;;;;;119.27;112.70;;;12.50;99.90;;;;;;4920782;29;20201;-77
2022/04/25 13:53:44;;;;;;;30.47;28.70;;;12.60;99.90;;;;;;4914474;29;20183;-77
2022/04/25 13:56:10;;;;;;;49.50;46.83;;;12.70;99.90;;;;;;4914594;29;20197;-77
2022/04/25 13:58:37;;;;;;;14.83;13.83;;;12.70;99.90;;;;;;4896333;29;20250;-77
2022/04/25 14:01:09;;;;;;;36.97;34.70;;;12.50;99.90;;;;;;4917596;29;20179;-77
2022/04/25 14:03:35;;;;;;;29.63;27.77;;;12.40;99.90;;;;;;4918379;29;20214;-78
2022/04/25 14:06:02;;;;;;;21.93;20.70;;;12.60;99.90;;;;;;4920481;29;20297;-84
2022/04/25 14:08:28;;;;;;;38.83;36.57;;;12.70;99.90;;;;;;4912289;29;20199;-77
2022/04/25 14:10:55;;;;;;;24.57;23.03;;;12.80;99.90;;;;;;4906600;29;20183;-77
2022/04/25 14:13:22;;;;;;;21.83;20.53;;;12.90;99.90;;;;;;4904385;29;20670;-78
2022/04/25 14:15:49;;;;;;;26.47;24.67;;;12.90;99.90;;;;;;4913788;29;20238;-79
2022/04/25 14:18:15;;;;;;;30.20;28.20;;;13.20;99.90;;;;;;4913039;29;20297;-77
2022/04/25 14:20:42;;;;;;;9.47;8.53;;;13.40;99.90;;;;;;4926698;29;20190;-78
2022/04/25 14:23:08;;;;;;;11.23;10.33;;;13.30;99.90;;;;;;4927704;29;20780;-78
2022/04/25 14:25:36;;;;;;;11.50;10.60;;;13.30;99.90;;;;;;4918717;29;20234;-79
2022/04/25 14:28:03;;;;;;;10.03;9.27;;;13.60;99.90;;;;;;4919100;29;20715;-78
2022/04/25 14:30:30;;;;;;;9.33;8.53;;;13.80;99.90;;;;;;4921357;29;20270;-78
2022/04/25 14:32:56;;;;;;;14.70;13.80;;;13.90;99.90;;;;;;4914542;29;20212;-79
2022/04/25 14:35:22;;;;;;;13.17;12.30;;;14.00;99.90;;;;;;4901109;29;20212;-78
2022/04/25 14:37:48;;;;;;;16.03;15.03;;;14.30;99.90;;;;;;4902152;29;20649;-78
2022/04/25 14:40:14;;;;;;;13.87;12.67;;;14.30;99.90;;;;;;4904863;29;20274;-78
2022/04/25 14:42:41;;;;;;;10.03;9.33;;;14.50;99.90;;;;;;4901858;29;20251;-79
2022/04/25 14:45:08;;;;;;;13.20;12.30;;;14.70;99.90;;;;;;4900969;29;20211;-78
2022/04/25 14:47:34;;;;;;;41.97;39.73;;;15.00;99.90;;;;;;4919853;29;20604;-78
2022/04/25 14:55:31;;;;;;;7.03;6.53;;;15.80;99.90;;;;;;4918220;29;20210;-77
2022/04/25 14:57:57;;;;;;;20.93;19.70;;;16.90;99.90;;;;;;4917219;29;20706;-78
2022/04/25 15:00:24;;;;;;;9.30;8.77;;;17.70;99.90;;;;;;4918733;29;20187;-78
2022/04/25 15:02:51;;;;;;;8.37;7.83;;;18.10;99.90;;;;;;4950575;29;20290;-76
2022/04/25 15:05:17;;;;;;;6.97;6.57;;;18.10;99.90;;;;;;4922642;29;20223;-76
2022/04/25 15:07:43;;;;;;;18.50;17.47;;;17.90;99.90;;;;;;4902528;29;20560;-77
2022/04/25 15:10:10;;;;;;;24.27;22.97;;;17.80;99.90;;;;;;4927524;29;20687;-77
2022/04/25 15:12:36;;;;;;;8.43;7.93;;;17.70;99.90;;;;;;4920238;29;20190;-75
2022/04/25 15:15:03;;;;;;;10.43;9.83;;;19.20;99.90;;;;;;4945300;23;20215;-75
2022/04/25 15:17:28;;;;;;;9.07;8.57;;;20.50;99.90;;;;;;4934989;29;20196;-72
2022/04/25 15:19:54;;;;;;;7.97;7.50;;;21.60;99.90;;;;;;4936417;29;20269;-69
2022/04/25 15:22:20;;;;;;;18.90;17.83;;;22.30;99.90;;;;;;4936193;29;20209;-70
2022/04/25 15:24:46;;;;;;;27.40;25.80;;;22.60;99.90;;;;;;4936699;29;20183;-71
2022/04/25 15:27:13;;;;;;;20.40;19.10;;;22.60;99.90;;;;;;4917358;29;20199;-73
2022/04/25 15:29:40;;;;;;;5.93;5.63;;;22.80;99.90;;;;;;4905115;29;20183;-72
2022/04/25 15:32:07;;;;;;;5.65;5.35;;;24.00;97.30;;;;;;4898323;29;20609;-77
2022/04/25 15:34:33;;;;;;;6.40;5.93;;;23.90;96.70;;;;;;4900367;29;20221;-72
2022/04/25 15:36:59;;;;;;;5.47;5.17;;;23.40;95.10;;;;;;4898218;29;20275;-72
2022/04/25 15:39:25;;;;;;;6.60;6.13;;;22.00;97.70;;;;;;4902401;29;20290;-71
2022/04/25 15:41:51;;;;;;;5.50;5.20;;;21.80;99.90;;;;;;4910510;29;20828;-71
2022/04/25 15:44:17;;;;;;;5.10;4.80;;;21.40;99.80;;;;;;4916358;29;20211;-71
2022/04/25 15:46:43;;;;;;;5.37;4.97;;;23.00;96.20;;;;;;4916214;29;20215;-71
2022/04/25 15:49:09;;;;;;;5.90;5.43;;;23.00;95.30;;;;;;4915452;29;20189;-74
2022/04/25 15:51:35;;;;;;;5.07;4.77;;;22.80;95.50;;;;;;4913183;29;20179;-74
2022/04/25 15:59:31;;;;;;;6.33;5.73;;;22.30;93.50;;;;;;4900203;29;20192;-74
2022/04/25 16:01:57;;;;;;;5.20;4.90;;;22.00;94.80;;;;;;4898331;29;20218;-74
2022/04/25 16:04:24;;;;;;;5.07;4.87;;;22.00;94.00;;;;;;4898264;29;20192;-74
2022/04/25 16:06:51;;;;;;;5.60;5.30;;;21.90;93.10;;;;;;4897745;29;20200;-74
2022/04/25 16:09:18;;;;;;;6.33;6.03;;;20.60;96.90;;;;;;4896049;29;20561;-72
2022/04/25 16:11:44;;;;;;;4.53;4.33;;;19.40;97.00;;;;;;4911515;29;20335;-72
2022/04/25 16:14:11;;;;;;;5.53;5.30;;;19.40;99.10;;;;;;4916945;29;20194;-72
2022/04/25 16:16:37;;;;;;;6.17;5.77;;;19.80;98.70;;;;;;4915815;29;20601;-73
2022/04/25 16:19:03;;;;;;;6.87;6.47;;;20.20;98.30;;;;;;4916708;29;20191;-72
2022/04/25 16:21:29;;;;;;;5.50;5.20;;;20.60;97.10;;;;;;4915501;29;20187;-72